Time;durP1;ratioP1;P1;durP2;ratioP2;P2;SDS_P1;SDS_P2;PMS_P1;PMS_P2;Temp;Humidity;BMP_temperature;BMP_pressure;BME280_temperature;BME280_humidity;BME280_pressure;Samples;Min_cycle;Max_cycle;Signal;HPM_P1;HPM_P2
2024/02/17 00:00:04;;;;;;;18.80;12.80;;;11.10;99.90;;;;;;5041045;28;20424;-75
2024/02/17 00:02:31;;;;;;;16.00;13.03;;;11.10;99.90;;;;;;5058382;28;20390;-75
2024/02/17 00:04:57;;;;;;;16.93;11.80;;;11.10;99.90;;;;;;5036159;28;20452;-77
2024/02/17 00:07:22;;;;;;;20.90;13.30;;;11.10;99.90;;;;;;5041441;28;20765;-75
2024/02/17 00:09:48;;;;;;;17.23;12.70;;;11.10;99.90;;;;;;5020035;28;20223;-76
2024/02/17 00:12:13;;;;;;;22.23;14.43;;;11.10;99.90;;;;;;5059172;28;20201;-73
2024/02/17 00:14:39;;;;;;;29.00;15.00;;;11.10;99.90;;;;;;5035657;28;20183;-74
2024/02/17 00:17:05;;;;;;;18.60;14.37;;;11.10;99.90;;;;;;5010072;28;20221;-76
2024/02/17 00:19:31;;;;;;;21.00;13.60;;;11.10;99.90;;;;;;5033140;28;20193;-76
2024/02/17 00:21:57;;;;;;;20.80;15.07;;;11.10;99.90;;;;;;5040998;28;20424;-75
2024/02/17 00:24:24;;;;;;;16.97;14.33;;;11.10;99.90;;;;;;5051593;28;20512;-76
2024/02/17 00:26:50;;;;;;;22.43;15.90;;;11.10;99.90;;;;;;5057787;28;20224;-74
2024/02/17 00:29:16;;;;;;;19.00;13.30;;;11.10;99.90;;;;;;5055241;28;20771;-74
2024/02/17 00:31:48;;;;;;;20.57;14.60;;;11.10;99.90;;;;;;5028228;28;20517;-74
2024/02/17 00:34:14;;;;;;;23.10;14.30;;;11.00;99.90;;;;;;5039987;28;20564;-76
2024/02/17 00:36:41;;;;;;;19.67;12.67;;;11.00;99.90;;;;;;5057000;28;20490;-75
2024/02/17 00:39:09;;;;;;;20.10;13.63;;;11.00;99.90;;;;;;5037601;28;20424;-74
2024/02/17 00:41:35;;;;;;;22.73;15.47;;;11.00;99.90;;;;;;5016044;28;20864;-75
2024/02/17 00:44:01;;;;;;;24.17;15.63;;;11.00;99.90;;;;;;5059991;28;20419;-74
2024/02/17 00:46:27;;;;;;;25.57;15.87;;;10.90;99.90;;;;;;5018670;28;20546;-74
2024/02/17 00:48:52;;;;;;;22.93;14.83;;;10.90;99.90;;;;;;5031644;28;20224;-75
2024/02/17 00:51:18;;;;;;;19.20;13.33;;;10.90;99.90;;;;;;5055400;28;20473;-75
2024/02/17 00:53:44;;;;;;;21.13;16.23;;;10.90;99.90;;;;;;5054517;28;20177;-74
2024/02/17 00:56:11;;;;;;;20.40;14.00;;;11.00;99.90;;;;;;5017781;28;20208;-75
2024/02/17 00:58:37;;;;;;;21.80;14.47;;;11.00;99.90;;;;;;5035933;28;20441;-75
2024/02/17 01:01:03;;;;;;;20.03;14.73;;;11.00;99.90;;;;;;5057404;28;20409;-75
2024/02/17 01:03:28;;;;;;;24.67;15.10;;;11.00;99.90;;;;;;5030681;28;20254;-74
2024/02/17 01:05:55;;;;;;;27.10;16.00;;;10.90;99.90;;;;;;5061483;28;20205;-77
2024/02/17 01:08:20;;;;;;;24.30;15.70;;;11.00;99.90;;;;;;5053724;28;20213;-73
2024/02/17 01:10:46;;;;;;;25.50;16.40;;;10.90;99.90;;;;;;5054800;28;20421;-75
2024/02/17 01:13:12;;;;;;;20.60;15.57;;;10.90;99.90;;;;;;5037822;28;20196;-72
2024/02/17 01:15:38;;;;;;;22.60;15.77;;;11.00;99.90;;;;;;5035263;28;20444;-75
2024/02/17 01:18:04;;;;;;;23.10;15.07;;;11.00;99.90;;;;;;5026718;28;20429;-73
2024/02/17 01:20:30;;;;;;;20.50;13.97;;;11.00;99.90;;;;;;5033575;28;20468;-73
2024/02/17 01:22:55;;;;;;;26.03;13.90;;;10.90;99.90;;;;;;5051939;28;20497;-75
2024/02/17 01:25:24;;;;;;;23.10;14.23;;;10.90;99.90;;;;;;5052782;28;20203;-75
2024/02/17 01:27:49;;;;;;;18.83;15.43;;;10.90;99.90;;;;;;5025995;28;20425;-74
2024/02/17 01:30:15;;;;;;;23.30;15.30;;;11.00;99.90;;;;;;5038932;28;20480;-74
2024/02/17 01:32:41;;;;;;;20.43;14.33;;;11.00;99.90;;;;;;5035546;28;20266;-74
2024/02/17 01:35:07;;;;;;;19.93;15.30;;;11.00;99.90;;;;;;5046674;28;20560;-73
2024/02/17 01:37:33;;;;;;;19.03;13.80;;;10.90;99.90;;;;;;5035260;28;20224;-74
2024/02/17 01:39:59;;;;;;;17.90;12.73;;;10.90;99.90;;;;;;5049150;28;20218;-75
2024/02/17 01:42:25;;;;;;;22.73;15.10;;;10.90;99.90;;;;;;5054403;28;20517;-74
2024/02/17 01:44:51;;;;;;;23.83;14.70;;;11.00;99.90;;;;;;5037259;28;20462;-73
2024/02/17 01:47:17;;;;;;;22.27;15.43;;;11.00;99.90;;;;;;5042106;28;20240;-74
2024/02/17 01:49:43;;;;;;;25.10;15.87;;;10.90;99.90;;;;;;5042104;28;20639;-73
2024/02/17 01:52:10;;;;;;;25.13;15.90;;;10.90;99.90;;;;;;5049846;28;20424;-76
2024/02/17 01:54:36;;;;;;;26.10;18.47;;;10.90;99.90;;;;;;5046331;28;20405;-76
2024/02/17 01:57:04;;;;;;;23.70;17.67;;;10.90;99.90;;;;;;5037925;28;20439;-72
2024/02/17 01:59:30;;;;;;;23.83;15.90;;;10.90;99.90;;;;;;5037799;28;20547;-73
2024/02/17 02:01:57;;;;;;;21.43;16.17;;;10.80;99.90;;;;;;5059023;28;20451;-76
2024/02/17 02:04:23;;;;;;;21.37;15.27;;;10.80;99.90;;;;;;5023850;28;20200;-75
2024/02/17 02:06:50;;;;;;;24.00;16.17;;;10.80;99.90;;;;;;5044403;28;20824;-74
2024/02/17 02:09:23;;;;;;;21.30;15.90;;;10.70;99.90;;;;;;5042545;28;20480;-75
2024/02/17 02:11:51;;;;;;;28.80;16.93;;;10.70;99.90;;;;;;5032750;28;20521;-75
2024/02/17 02:14:19;;;;;;;21.67;16.57;;;10.70;99.90;;;;;;5038066;28;20922;-74
2024/02/17 02:16:47;;;;;;;18.80;13.97;;;10.70;99.90;;;;;;5056811;28;20440;-73
2024/02/17 02:19:14;;;;;;;21.00;14.97;;;10.70;99.90;;;;;;5055393;28;20437;-74
2024/02/17 02:21:40;;;;;;;23.40;15.70;;;10.60;99.90;;;;;;5044498;28;20452;-74
2024/02/17 02:24:07;;;;;;;23.37;14.93;;;10.60;99.90;;;;;;5051557;28;20476;-74
2024/02/17 02:26:33;;;;;;;25.60;15.53;;;10.60;99.90;;;;;;5059212;28;20445;-74
2024/02/17 02:28:59;;;;;;;25.03;16.70;;;10.60;99.90;;;;;;5053498;28;20794;-74
2024/02/17 02:31:25;;;;;;;23.90;16.23;;;10.60;99.90;;;;;;5053467;28;20489;-76
2024/02/17 02:33:51;;;;;;;22.80;15.70;;;10.60;99.90;;;;;;5032907;28;20694;-75
2024/02/17 02:36:20;;;;;;;17.00;13.93;;;10.60;99.90;;;;;;5051924;28;20444;-72
2024/02/17 02:38:47;;;;;;;33.20;17.53;;;10.60;99.90;;;;;;5053957;28;20444;-74
2024/02/17 02:41:14;;;;;;;25.67;15.47;;;10.60;99.90;;;;;;5046760;28;20406;-74
2024/02/17 02:43:40;;;;;;;23.20;14.50;;;10.60;99.90;;;;;;5055534;28;20455;-75
2024/02/17 02:46:06;;;;;;;27.27;15.97;;;10.60;99.90;;;;;;5052767;28;20425;-74
2024/02/17 02:48:32;;;;;;;21.07;13.77;;;10.60;99.90;;;;;;5050908;28;20478;-74
2024/02/17 02:50:59;;;;;;;19.37;14.60;;;10.50;99.90;;;;;;5053619;28;20435;-74
2024/02/17 02:53:25;;;;;;;19.30;13.37;;;10.50;99.90;;;;;;5050059;28;20390;-73
2024/02/17 02:55:54;;;;;;;20.33;13.17;;;10.50;99.90;;;;;;5041696;28;20294;-73
2024/02/17 02:58:21;;;;;;;24.23;15.27;;;10.50;99.90;;;;;;5044049;28;20448;-73
2024/02/17 03:00:47;;;;;;;20.77;14.37;;;10.50;99.90;;;;;;5038910;28;20829;-72
2024/02/17 03:03:12;;;;;;;19.27;14.00;;;10.50;99.90;;;;;;5053780;28;20518;-74
2024/02/17 03:05:38;;;;;;;21.87;14.90;;;10.50;99.90;;;;;;5028372;28;20891;-73
2024/02/17 03:08:05;;;;;;;22.10;14.83;;;10.50;99.90;;;;;;5037442;28;20211;-73
2024/02/17 03:10:31;;;;;;;20.57;13.83;;;10.50;99.90;;;;;;5027967;28;20288;-73
2024/02/17 03:12:57;;;;;;;23.07;14.23;;;10.40;99.90;;;;;;5040358;28;20440;-75
2024/02/17 03:15:23;;;;;;;20.87;12.90;;;10.50;99.90;;;;;;5043389;28;20422;-72
2024/02/17 03:17:53;;;;;;;17.50;12.60;;;10.50;99.90;;;;;;5052624;28;20430;-74
2024/02/17 03:20:19;;;;;;;17.70;12.30;;;10.50;99.90;;;;;;5048342;28;20184;-75
2024/02/17 03:22:44;;;;;;;24.53;15.40;;;10.50;99.90;;;;;;5050576;28;20448;-73
2024/02/17 03:25:11;;;;;;;18.10;14.07;;;10.40;99.90;;;;;;5056784;28;20181;-73
2024/02/17 03:27:37;;;;;;;20.57;12.70;;;10.40;99.90;;;;;;5061804;28;20583;-72
2024/02/17 03:30:05;;;;;;;22.60;13.50;;;10.40;99.90;;;;;;5038501;28;20456;-72
2024/02/17 03:32:32;;;;;;;22.30;14.63;;;10.40;99.90;;;;;;5039292;28;20226;-73
2024/02/17 03:34:58;;;;;;;23.87;13.27;;;10.40;99.90;;;;;;5027741;28;20417;-73
2024/02/17 03:37:25;;;;;;;17.00;10.77;;;10.40;99.90;;;;;;5040291;28;20723;-74
2024/02/17 03:39:51;;;;;;;21.80;12.30;;;10.40;99.90;;;;;;5042551;28;20436;-77
2024/02/17 03:42:17;;;;;;;23.80;14.07;;;10.40;99.90;;;;;;5035455;28;20441;-74
2024/02/17 03:44:43;;;;;;;20.07;12.83;;;10.50;99.90;;;;;;5053623;28;20415;-74
2024/02/17 03:47:11;;;;;;;18.83;12.30;;;10.50;99.90;;;;;;5045761;28;20210;-72
2024/02/17 03:49:37;;;;;;;20.77;11.47;;;10.50;99.90;;;;;;5038148;28;20473;-72
2024/02/17 03:52:03;;;;;;;18.60;11.10;;;10.50;99.90;;;;;;5055206;28;20425;-73
2024/02/17 03:54:28;;;;;;;21.83;12.07;;;10.50;99.90;;;;;;5040884;28;20740;-75
2024/02/17 03:56:54;;;;;;;14.73;11.43;;;10.50;99.90;;;;;;5041729;28;20461;-73
2024/02/17 03:59:19;;;;;;;16.73;10.60;;;10.40;99.90;;;;;;5060280;28;20253;-74
2024/02/17 04:01:45;;;;;;;19.97;11.50;;;10.40;99.90;;;;;;5024891;28;20236;-73
2024/02/17 04:04:11;;;;;;;18.10;11.80;;;10.40;99.90;;;;;;5056896;28;20195;-73
2024/02/17 04:06:36;;;;;;;18.83;12.07;;;10.40;99.90;;;;;;5041123;28;20219;-74
2024/02/17 04:09:02;;;;;;;14.77;10.10;;;10.40;99.90;;;;;;5047916;28;20218;-73
2024/02/17 04:11:28;;;;;;;15.30;10.77;;;10.40;99.90;;;;;;5048385;28;20198;-74
2024/02/17 04:13:56;;;;;;;19.73;11.27;;;10.30;99.90;;;;;;5050263;28;20199;-72
2024/02/17 04:16:21;;;;;;;17.80;11.80;;;10.30;99.90;;;;;;5046265;28;20199;-74
2024/02/17 04:18:48;;;;;;;18.40;12.27;;;10.30;99.90;;;;;;5048805;28;20506;-72
2024/02/17 04:21:14;;;;;;;22.50;13.60;;;10.30;99.90;;;;;;5044578;28;20427;-74
2024/02/17 04:23:41;;;;;;;17.73;11.30;;;10.30;99.90;;;;;;5046395;28;20422;-73
2024/02/17 04:26:09;;;;;;;18.00;11.30;;;10.30;99.90;;;;;;5055748;28;20340;-75
2024/02/17 04:28:35;;;;;;;18.23;11.47;;;10.30;99.90;;;;;;5039251;28;20448;-72
2024/02/17 04:31:01;;;;;;;11.17;9.33;;;10.30;99.90;;;;;;5057268;28;20458;-72
2024/02/17 04:33:27;;;;;;;16.20;10.53;;;10.30;99.90;;;;;;5052267;28;20673;-73
2024/02/17 04:35:53;;;;;;;12.07;9.90;;;10.30;99.90;;;;;;5052887;28;20432;-75
2024/02/17 04:38:19;;;;;;;13.57;8.73;;;10.30;99.90;;;;;;5031230;28;20574;-74
2024/02/17 04:40:45;;;;;;;14.07;9.10;;;10.30;99.90;;;;;;5041401;28;20763;-72
2024/02/17 04:43:12;;;;;;;13.47;9.43;;;10.30;99.90;;;;;;5047337;28;20466;-73
2024/02/17 04:45:37;;;;;;;14.23;11.07;;;10.30;99.90;;;;;;5047689;28;20444;-72
2024/02/17 04:48:03;;;;;;;14.23;11.90;;;10.20;99.90;;;;;;5042365;28;20813;-73
2024/02/17 04:50:29;;;;;;;14.77;10.83;;;10.20;99.90;;;;;;5044282;28;20221;-72
2024/02/17 04:52:54;;;;;;;17.27;12.57;;;10.20;99.90;;;;;;5019329;28;20207;-74
2024/02/17 04:55:20;;;;;;;16.70;9.77;;;10.20;99.90;;;;;;5045730;28;20163;-75
2024/02/17 04:57:45;;;;;;;13.17;10.13;;;10.20;99.90;;;;;;5048668;28;20187;-74
2024/02/17 05:00:11;;;;;;;17.93;11.03;;;10.20;99.90;;;;;;5048291;28;20186;-73
2024/02/17 05:02:38;;;;;;;16.27;11.10;;;10.20;99.90;;;;;;5029087;28;20206;-73
2024/02/17 05:05:04;;;;;;;16.40;9.43;;;10.20;99.90;;;;;;5052011;28;20579;-73
2024/02/17 05:07:29;;;;;;;14.00;10.80;;;10.20;99.90;;;;;;5046180;28;20504;-72
2024/02/17 05:09:55;;;;;;;12.90;11.23;;;10.20;99.90;;;;;;5041290;28;20472;-74
2024/02/17 05:12:21;;;;;;;19.57;12.53;;;10.10;99.90;;;;;;5053254;28;20200;-73
2024/02/17 05:14:46;;;;;;;19.60;12.77;;;10.20;99.90;;;;;;5053544;28;20612;-73
2024/02/17 05:17:12;;;;;;;22.50;13.60;;;10.10;99.90;;;;;;5049639;28;20268;-73
2024/02/17 05:19:38;;;;;;;20.70;13.83;;;10.10;99.90;;;;;;5036734;28;20190;-73
2024/02/17 05:22:04;;;;;;;21.17;13.27;;;10.10;99.90;;;;;;5038712;28;20278;-72
2024/02/17 05:24:31;;;;;;;20.67;13.27;;;10.10;99.90;;;;;;5046586;28;20594;-73
2024/02/17 05:26:57;;;;;;;21.73;15.00;;;10.10;99.90;;;;;;5046318;28;20443;-72
2024/02/17 05:29:22;;;;;;;18.50;15.00;;;10.10;99.90;;;;;;5046462;28;20473;-73
2024/02/17 05:31:48;;;;;;;15.83;13.20;;;10.10;99.90;;;;;;5039520;28;20268;-73
2024/02/17 05:34:14;;;;;;;18.33;12.83;;;10.10;99.90;;;;;;5038922;28;20190;-73
2024/02/17 05:36:39;;;;;;;19.63;14.87;;;10.10;99.90;;;;;;5056844;28;20297;-72
2024/02/17 05:39:05;;;;;;;13.77;11.47;;;10.10;99.90;;;;;;5048539;28;20193;-74
2024/02/17 05:41:30;;;;;;;20.47;13.60;;;10.10;99.90;;;;;;5046958;28;20186;-74
2024/02/17 05:43:56;;;;;;;16.17;12.77;;;10.10;99.90;;;;;;5038215;28;20442;-74
2024/02/17 05:46:23;;;;;;;19.20;13.13;;;10.10;99.90;;;;;;5039527;28;20229;-72
2024/02/17 05:48:49;;;;;;;16.87;13.13;;;10.10;99.90;;;;;;5044593;28;20218;-74
2024/02/17 05:51:15;;;;;;;21.27;13.73;;;10.10;99.90;;;;;;5044897;28;20434;-74
2024/02/17 05:53:40;;;;;;;18.57;11.53;;;10.10;99.90;;;;;;5040734;28;20261;-73
2024/02/17 05:56:07;;;;;;;19.00;12.17;;;10.10;99.90;;;;;;5041931;28;20214;-75
2024/02/17 05:58:35;;;;;;;18.30;12.60;;;10.10;99.90;;;;;;5046046;28;20392;-74
2024/02/17 06:01:01;;;;;;;18.90;13.70;;;10.10;99.90;;;;;;5037047;28;20496;-73
2024/02/17 06:03:27;;;;;;;20.23;13.93;;;10.10;99.90;;;;;;5037741;28;20472;-73
2024/02/17 06:05:53;;;;;;;17.53;13.20;;;10.10;99.90;;;;;;5045758;28;20218;-73
2024/02/17 06:08:20;;;;;;;15.87;12.07;;;10.10;99.90;;;;;;5043935;28;20212;-72
2024/02/17 06:10:46;;;;;;;26.13;16.10;;;10.10;99.90;;;;;;5044599;28;20732;-73
2024/02/17 06:13:12;;;;;;;17.90;12.97;;;10.00;99.90;;;;;;5055893;28;20412;-74
2024/02/17 06:15:42;;;;;;;19.30;11.60;;;10.10;99.90;;;;;;5058395;28;20549;-73
2024/02/17 06:21:11;;;;;;;23.73;14.37;;;10.00;99.90;;;;;;5047781;28;20429;-73
2024/02/17 06:23:37;;;;;;;24.23;15.10;;;10.00;99.90;;;;;;5054512;28;20436;-73
2024/02/17 06:26:03;;;;;;;23.20;15.10;;;10.00;99.90;;;;;;5049076;28;20825;-73
2024/02/17 06:28:29;;;;;;;20.40;15.00;;;10.00;99.90;;;;;;5049269;28;20460;-73
2024/02/17 06:30:54;;;;;;;19.83;13.93;;;10.00;99.90;;;;;;5045571;28;20462;-73
2024/02/17 06:33:20;;;;;;;18.67;14.13;;;10.00;99.90;;;;;;5039055;28;20189;-74
2024/02/17 06:35:46;;;;;;;18.57;14.07;;;10.00;99.90;;;;;;5050613;28;20209;-72
2024/02/17 06:38:15;;;;;;;19.73;11.83;;;10.00;99.90;;;;;;5030790;28;20742;-73
2024/02/17 06:40:41;;;;;;;18.67;12.97;;;10.00;99.90;;;;;;5053397;28;20508;-74
2024/02/17 06:43:07;;;;;;;16.23;11.47;;;10.00;99.90;;;;;;5052943;28;20461;-73
2024/02/17 06:45:33;;;;;;;17.83;13.80;;;10.00;99.90;;;;;;5052681;28;20950;-74
2024/02/17 06:47:58;;;;;;;19.53;14.57;;;10.00;99.90;;;;;;5049207;28;20288;-75
2024/02/17 06:50:24;;;;;;;20.30;14.03;;;10.00;99.90;;;;;;5046068;28;20449;-72
2024/02/17 06:52:49;;;;;;;15.13;12.37;;;10.00;99.90;;;;;;5032808;28;20197;-75
2024/02/17 06:55:15;;;;;;;15.33;11.40;;;10.00;99.90;;;;;;5041436;28;20170;-73
2024/02/17 06:57:40;;;;;;;15.20;10.60;;;10.00;99.90;;;;;;5059806;28;20235;-73
2024/02/17 07:00:07;;;;;;;19.43;13.23;;;10.00;99.90;;;;;;5050195;28;20259;-74
2024/02/17 07:02:33;;;;;;;15.33;13.03;;;10.00;99.90;;;;;;5064158;28;20197;-74
2024/02/17 07:04:59;;;;;;;20.90;13.03;;;10.00;99.90;;;;;;5052844;28;20954;-73
2024/02/17 07:07:24;;;;;;;20.53;13.07;;;10.10;99.90;;;;;;5038833;28;20444;-73
2024/02/17 07:09:50;;;;;;;21.27;13.90;;;10.10;99.90;;;;;;5047731;28;20301;-74
2024/02/17 07:12:15;;;;;;;16.73;13.60;;;10.10;99.90;;;;;;5049405;28;20187;-73
2024/02/17 07:14:41;;;;;;;17.63;12.80;;;10.00;99.90;;;;;;5054665;28;20473;-74
2024/02/17 07:17:07;;;;;;;19.50;12.20;;;10.10;99.90;;;;;;5031980;28;20202;-74
2024/02/17 07:19:32;;;;;;;16.90;11.60;;;10.10;99.90;;;;;;5034242;28;20205;-75
2024/02/17 07:21:58;;;;;;;16.27;12.47;;;10.10;99.90;;;;;;5054160;28;20191;-73
2024/02/17 07:24:24;;;;;;;14.20;11.13;;;10.10;99.90;;;;;;5049969;28;20230;-73
2024/02/17 07:26:52;;;;;;;11.23;9.23;;;10.10;99.90;;;;;;5021250;28;20244;-73
2024/02/17 07:29:18;;;;;;;17.53;11.77;;;10.20;99.90;;;;;;5013642;28;20441;-74
2024/02/17 07:31:44;;;;;;;16.10;11.50;;;10.20;99.90;;;;;;5036424;28;20498;-73
2024/02/17 07:34:14;;;;;;;15.90;11.70;;;10.20;99.90;;;;;;5037291;28;20864;-75
2024/02/17 07:36:41;;;;;;;16.27;11.67;;;10.20;99.90;;;;;;5013979;28;20215;-74
2024/02/17 07:39:08;;;;;;;25.67;14.57;;;10.30;99.90;;;;;;5022676;28;20441;-73
2024/02/17 07:41:33;;;;;;;16.77;12.63;;;10.20;99.90;;;;;;5036973;28;20444;-75
2024/02/17 07:43:59;;;;;;;18.83;14.20;;;10.30;99.90;;;;;;5027064;28;20474;-75
2024/02/17 07:46:25;;;;;;;16.50;11.60;;;10.30;99.90;;;;;;5037017;28;20214;-75
2024/02/17 07:48:51;;;;;;;17.83;12.40;;;10.30;99.90;;;;;;5025207;28;20262;-73
2024/02/17 07:51:17;;;;;;;16.77;13.70;;;10.40;99.90;;;;;;5026776;28;20750;-74
2024/02/17 07:53:42;;;;;;;24.60;13.30;;;10.40;99.90;;;;;;5030891;28;20181;-75
2024/02/17 07:56:09;;;;;;;16.20;12.10;;;10.40;99.90;;;;;;5028544;28;20263;-74
2024/02/17 07:58:35;;;;;;;17.63;11.63;;;10.40;99.90;;;;;;5032239;28;20187;-74
2024/02/17 08:01:00;;;;;;;16.57;12.80;;;10.50;99.90;;;;;;5031673;28;20392;-77
2024/02/17 08:03:27;;;;;;;18.60;10.40;;;10.50;99.90;;;;;;5028411;28;20182;-75
2024/02/17 08:05:54;;;;;;;15.43;12.00;;;10.50;99.90;;;;;;5036954;28;20217;-75
2024/02/17 08:08:19;;;;;;;16.73;11.57;;;10.50;99.90;;;;;;5038964;28;20479;-76
2024/02/17 08:10:45;;;;;;;16.30;10.77;;;10.50;99.90;;;;;;5036378;28;21103;-75
2024/02/17 08:13:13;;;;;;;15.23;10.60;;;10.60;99.90;;;;;;5028388;28;20217;-75
2024/02/17 08:15:39;;;;;;;19.57;12.60;;;10.60;99.90;;;;;;5028448;28;20346;-75
2024/02/17 08:18:05;;;;;;;15.87;11.10;;;10.60;99.90;;;;;;5030645;28;20556;-75
2024/02/17 08:20:31;;;;;;;17.10;11.63;;;10.60;99.90;;;;;;5008449;28;20433;-73
2024/02/17 08:22:57;;;;;;;19.63;13.57;;;10.60;99.90;;;;;;5039301;28;20435;-77
2024/02/17 08:25:24;;;;;;;22.17;13.20;;;10.60;99.90;;;;;;5034751;28;20203;-75
2024/02/17 08:27:49;;;;;;;18.13;11.70;;;10.70;99.90;;;;;;5026792;28;20422;-74
2024/02/17 08:30:15;;;;;;;18.37;12.37;;;10.70;99.90;;;;;;5034392;28;20472;-79
2024/02/17 08:32:41;;;;;;;17.97;11.80;;;10.70;99.90;;;;;;5036234;28;20611;-73
2024/02/17 08:35:07;;;;;;;14.30;11.43;;;10.70;99.90;;;;;;5033406;28;20430;-75
2024/02/17 08:37:33;;;;;;;19.50;11.90;;;10.80;99.90;;;;;;5028429;28;20679;-74
2024/02/17 08:39:59;;;;;;;18.67;11.93;;;10.80;99.90;;;;;;5017146;28;20426;-75
2024/02/17 08:42:25;;;;;;;23.80;14.00;;;10.90;99.90;;;;;;5041704;28;20438;-78
2024/02/17 08:44:53;;;;;;;25.97;12.50;;;10.90;99.90;;;;;;5032908;28;20198;-75
2024/02/17 08:47:23;;;;;;;18.10;11.50;;;11.00;99.90;;;;;;5026673;28;20482;-77
2024/02/17 08:49:49;;;;;;;18.63;13.37;;;11.00;99.90;;;;;;5009950;28;20545;-75
2024/02/17 08:52:15;;;;;;;21.83;11.70;;;11.10;99.90;;;;;;5041830;28;20436;-76
2024/02/17 08:54:41;;;;;;;17.03;11.33;;;11.00;99.90;;;;;;5035607;28;20418;-77
2024/02/17 08:57:07;;;;;;;19.50;11.97;;;11.10;99.90;;;;;;5030403;28;20968;-75
2024/02/17 08:59:33;;;;;;;22.80;12.73;;;11.00;99.90;;;;;;5041173;28;20435;-75
2024/02/17 09:02:01;;;;;;;16.43;10.73;;;11.00;99.90;;;;;;5018022;28;20200;-75
2024/02/17 09:04:26;;;;;;;17.77;11.40;;;11.10;99.90;;;;;;5036525;28;20425;-75
2024/02/17 09:06:52;;;;;;;23.53;14.27;;;11.10;99.90;;;;;;5035203;28;20456;-75
2024/02/17 09:09:19;;;;;;;19.17;11.00;;;11.20;99.90;;;;;;5030058;28;20200;-76
2024/02/17 09:11:45;;;;;;;22.80;12.53;;;11.20;99.90;;;;;;5038834;28;20186;-75
2024/02/17 09:14:11;;;;;;;15.97;10.90;;;11.20;99.90;;;;;;5033143;28;20504;-75
2024/02/17 09:16:37;;;;;;;19.20;11.37;;;11.30;99.90;;;;;;5037107;28;20456;-74
2024/02/17 09:19:02;;;;;;;16.43;11.07;;;11.30;99.90;;;;;;5031716;28;20414;-73
2024/02/17 09:21:28;;;;;;;19.73;12.10;;;11.30;99.90;;;;;;5034389;28;20190;-73
2024/02/17 09:23:54;;;;;;;13.90;9.93;;;11.40;99.90;;;;;;5042050;28;20665;-75
2024/02/17 09:26:21;;;;;;;21.20;11.33;;;11.40;99.90;;;;;;5035648;28;20556;-75
2024/02/17 09:28:47;;;;;;;16.57;11.03;;;11.40;99.90;;;;;;5028187;28;20442;-76
2024/02/17 09:31:12;;;;;;;13.50;9.70;;;11.40;99.90;;;;;;5040497;28;20456;-77
2024/02/17 09:33:38;;;;;;;21.50;11.47;;;11.50;99.90;;;;;;5019550;28;20189;-76
2024/02/17 09:36:04;;;;;;;16.87;11.10;;;11.50;99.90;;;;;;5017930;28;20222;-76
2024/02/17 09:38:31;;;;;;;16.20;10.63;;;11.50;99.90;;;;;;5050257;28;20413;-74
2024/02/17 09:40:56;;;;;;;18.97;11.97;;;11.50;99.90;;;;;;5044869;28;20439;-76
2024/02/17 09:43:24;;;;;;;16.67;10.00;;;11.50;99.90;;;;;;5050283;28;20438;-74
2024/02/17 09:45:49;;;;;;;20.37;10.57;;;11.40;99.90;;;;;;5036154;28;20628;-76
2024/02/17 09:48:15;;;;;;;22.03;11.37;;;11.40;99.90;;;;;;5057634;28;20460;-75
2024/02/17 09:50:42;;;;;;;16.70;11.03;;;11.40;99.90;;;;;;5051215;28;20188;-77
2024/02/17 09:53:09;;;;;;;15.80;10.57;;;11.40;99.90;;;;;;5043754;28;20178;-76
2024/02/17 09:55:37;;;;;;;18.93;10.63;;;11.30;99.90;;;;;;5058053;28;20463;-76
2024/02/17 09:58:03;;;;;;;20.37;10.80;;;11.30;99.90;;;;;;5050704;28;20439;-75
2024/02/17 10:00:29;;;;;;;23.83;13.27;;;11.30;99.90;;;;;;5047678;28;20180;-76
2024/02/17 10:02:54;;;;;;;18.87;11.37;;;11.40;99.90;;;;;;5057317;28;20409;-77
2024/02/17 10:05:21;;;;;;;18.30;11.70;;;11.30;99.90;;;;;;5018254;28;20213;-75
2024/02/17 10:07:51;;;;;;;24.40;10.50;;;11.30;99.90;;;;;;5000501;28;20186;-76
2024/02/17 10:10:18;;;;;;;15.47;10.90;;;11.30;99.90;;;;;;5037020;28;20451;-75
2024/02/17 10:12:58;;;;;;;18.67;11.80;;;11.30;99.90;;;;;;5025751;28;20466;-75
2024/02/17 10:15:25;;;;;;;16.60;11.20;;;11.40;99.90;;;;;;5050712;28;20438;-77
2024/02/17 10:17:53;;;;;;;12.60;10.47;;;11.40;99.90;;;;;;5032251;28;20406;-80
2024/02/17 10:20:19;;;;;;;20.53;12.33;;;11.40;99.90;;;;;;5013709;28;20436;-75
2024/02/17 10:22:46;;;;;;;16.50;12.10;;;11.50;99.90;;;;;;5043759;28;20454;-76
2024/02/17 10:25:13;;;;;;;26.57;13.03;;;11.50;99.90;;;;;;5065708;28;20713;-75
2024/02/17 10:27:41;;;;;;;20.33;11.03;;;11.50;99.90;;;;;;5055660;28;20426;-76
2024/02/17 10:30:10;;;;;;;15.90;11.17;;;11.60;99.90;;;;;;5049117;28;20549;-78
2024/02/17 10:32:37;;;;;;;18.57;12.07;;;11.60;99.90;;;;;;5035576;28;20468;-76
2024/02/17 10:35:05;;;;;;;16.90;11.60;;;11.60;99.90;;;;;;5045047;28;20421;-79
2024/02/17 10:37:32;;;;;;;23.37;11.70;;;11.70;99.90;;;;;;5019731;28;20448;-79
2024/02/17 10:40:05;;;;;;;18.40;10.67;;;11.80;99.90;;;;;;5055969;28;20424;-76
2024/02/17 10:42:32;;;;;;;20.03;12.50;;;11.80;99.90;;;;;;5040162;28;20440;-76
2024/02/17 10:45:00;;;;;;;12.80;10.77;;;11.80;99.90;;;;;;5049886;28;20423;-77
2024/02/17 10:47:32;;;;;;;15.23;11.70;;;11.90;99.90;;;;;;5025541;28;20449;-77
2024/02/17 10:50:12;;;;;;;14.40;10.07;;;12.00;99.90;;;;;;5050193;28;20542;-79
2024/02/17 10:52:42;;;;;;;12.70;9.67;;;12.00;99.90;;;;;;5028964;28;20416;-80
2024/02/17 10:55:12;;;;;;;17.97;12.30;;;12.10;99.90;;;;;;5049322;28;20443;-79
2024/02/17 10:57:44;;;;;;;11.10;8.30;;;12.10;99.90;;;;;;5060748;28;20408;-79
2024/02/17 11:00:11;;;;;;;10.83;9.40;;;12.10;99.90;;;;;;5049550;28;20417;-78
2024/02/17 11:02:38;;;;;;;13.47;9.37;;;12.10;99.90;;;;;;5029075;28;20480;-78
2024/02/17 11:05:04;;;;;;;12.77;9.10;;;12.20;99.90;;;;;;5034138;28;20418;-77
2024/02/17 11:07:32;;;;;;;24.30;13.10;;;12.20;99.90;;;;;;5042557;28;20440;-75
2024/02/17 11:10:05;;;;;;;20.00;13.00;;;12.20;99.90;;;;;;5056037;28;20452;-79
2024/02/17 11:12:35;;;;;;;18.10;11.37;;;12.10;99.90;;;;;;5034301;28;20858;-75
2024/02/17 11:15:09;;;;;;;18.80;10.53;;;12.10;99.90;;;;;;5022802;28;20409;-76
2024/02/17 11:17:51;;;;;;;21.13;12.77;;;12.10;99.90;;;;;;5038553;28;20557;-77
2024/02/17 11:20:18;;;;;;;22.37;13.23;;;12.10;99.90;;;;;;5047680;28;20416;-77
2024/02/17 11:22:47;;;;;;;19.70;13.37;;;12.20;99.90;;;;;;5026245;28;20454;-76
2024/02/17 11:25:33;;;;;;;20.17;13.83;;;12.20;99.90;;;;;;5052818;28;20419;-77
2024/02/17 11:28:00;;;;;;;29.40;12.80;;;12.20;99.90;;;;;;5031059;28;20455;-77
2024/02/17 11:30:26;;;;;;;22.70;13.93;;;12.20;99.90;;;;;;5041182;28;20463;-77
2024/02/17 11:33:00;;;;;;;20.20;12.53;;;12.20;99.90;;;;;;5035720;28;20432;-77
2024/02/17 11:35:27;;;;;;;20.23;13.37;;;12.20;99.90;;;;;;5055026;28;20174;-79
2024/02/17 11:37:55;;;;;;;17.63;11.50;;;12.20;99.90;;;;;;5019806;28;20588;-76
2024/02/17 11:40:23;;;;;;;18.20;11.30;;;12.30;99.90;;;;;;5050197;28;20613;-76
2024/02/17 11:42:50;;;;;;;18.77;12.63;;;12.40;99.90;;;;;;5036676;28;20498;-77
2024/02/17 11:45:16;;;;;;;14.70;10.60;;;12.50;99.90;;;;;;5055936;28;20677;-78
2024/02/17 11:47:42;;;;;;;18.20;11.53;;;12.60;99.90;;;;;;5015501;28;20420;-76
2024/02/17 11:50:09;;;;;;;18.97;11.97;;;12.70;99.90;;;;;;5028967;28;20291;-79
2024/02/17 11:52:37;;;;;;;21.40;13.00;;;12.70;99.90;;;;;;5061628;28;20453;-77
2024/02/17 11:55:05;;;;;;;17.33;11.33;;;12.60;99.90;;;;;;5042312;28;20428;-77
2024/02/17 11:57:31;;;;;;;17.13;12.70;;;12.60;99.90;;;;;;5060048;28;20440;-78
2024/02/17 11:59:57;;;;;;;18.00;9.43;;;12.70;99.90;;;;;;5021883;28;20445;-78
2024/02/17 12:02:24;;;;;;;16.83;9.80;;;12.80;99.90;;;;;;5049001;28;20500;-77
2024/02/17 12:04:52;;;;;;;18.73;14.70;;;12.90;99.90;;;;;;5052784;28;20290;-77
2024/02/17 12:07:17;;;;;;;20.40;12.33;;;12.90;99.90;;;;;;5044051;28;20482;-76
2024/02/17 12:09:44;;;;;;;19.57;13.00;;;12.90;99.90;;;;;;5058409;28;20449;-78
2024/02/17 12:12:10;;;;;;;15.83;11.87;;;12.80;99.90;;;;;;5061179;28;20277;-79
2024/02/17 12:14:35;;;;;;;13.63;10.37;;;12.80;99.90;;;;;;5047110;28;20416;-78
2024/02/17 12:17:03;;;;;;;16.50;11.67;;;12.80;99.90;;;;;;5038664;28;20209;-79
2024/02/17 12:19:28;;;;;;;18.70;13.10;;;12.80;99.90;;;;;;5026980;28;20254;-79
2024/02/17 12:21:54;;;;;;;14.43;10.63;;;12.90;99.90;;;;;;5053472;28;20408;-77
2024/02/17 12:24:20;;;;;;;15.40;9.50;;;13.00;99.90;;;;;;5037644;28;20190;-76
2024/02/17 12:26:47;;;;;;;13.07;10.23;;;13.10;99.90;;;;;;5049867;28;20447;-77